Time;durP1;ratioP1;P1;durP2;ratioP2;P2;SDS_P1;SDS_P2;PMS_P1;PMS_P2;Temp;Humidity;BMP_temperature;BMP_pressure;BME280_temperature;BME280_humidity;BME280_pressure;Samples;Min_cycle;Max_cycle;Signal;HPM_P1;HPM_P2
2023/04/24 00:00:21;;;;;;;;;;;17.70;56.40;;;;;;5097507;28;19920;-72
2023/04/24 00:02:47;;;;;;;;;;;18.20;55.60;;;;;;5097771;28;19940;-72
2023/04/24 00:05:14;;;;;;;;;;;18.80;54.30;;;;;;5115817;28;19920;-72
2023/04/24 00:07:40;;;;;;;;;;;19.40;53.00;;;;;;5097710;28;19919;-73
2023/04/24 00:10:06;;;;;;;;;;;20.10;51.50;;;;;;5097413;28;19926;-73
2023/04/24 00:12:31;;;;;;;;;;;20.70;50.10;;;;;;5097393;28;20423;-73
2023/04/24 00:14:57;;;;;;;;;;;21.30;48.80;;;;;;5097648;28;20371;-73
2023/04/24 00:17:22;;;;;;;;;;;21.80;47.70;;;;;;5097415;28;19924;-73
2023/04/24 00:19:48;;;;;;;;;;;22.10;46.90;;;;;;5097205;28;20440;-74
2023/04/24 00:22:14;;;;;;;;;;;22.40;46.20;;;;;;5097498;28;19926;-73
2023/04/24 00:24:40;;;;;;;;;;;22.70;45.60;;;;;;5115374;28;19973;-73
2023/04/24 00:27:06;;;;;;;;;;;22.90;45.10;;;;;;5097374;28;19919;-73
2023/04/24 00:29:31;;;;;;;;;;;23.00;44.80;;;;;;5097018;28;19920;-73
2023/04/24 00:31:57;;;;;;;;;;;23.10;44.40;;;;;;5096940;28;19928;-74
2023/04/24 00:34:22;;;;;;;;;;;23.20;44.20;;;;;;5097151;28;19926;-73
2023/04/24 00:36:51;;;;;;;;;;;23.20;44.20;;;;;;5097209;28;20068;-74
2023/04/24 00:39:18;;;;;;;;;;;23.10;44.20;;;;;;5096838;28;19923;-74
2023/04/24 00:41:45;;;;;;;;;;;22.90;44.30;;;;;;5115170;28;19920;-74
2023/04/24 00:44:10;;;;;;;;;;;22.80;44.50;;;;;;5097066;28;19920;-74
2023/04/24 00:46:36;;;;;;;;;;;22.60;44.80;;;;;;5096970;28;20405;-74
2023/04/24 00:49:02;;;;;;;;;;;22.40;46.00;;;;;;5096526;28;20324;-74
2023/04/24 00:51:28;;;;;;;;;;;22.20;45.40;;;;;;5096498;28;19924;-74
2023/04/24 00:53:53;;;;;;;;;;;21.90;45.80;;;;;;5114801;28;19924;-74
2023/04/24 00:56:19;;;;;;;;;;;21.70;46.10;;;;;;5096819;28;19919;-74
2023/04/24 00:58:45;;;;;;;;;;;21.50;46.50;;;;;;5096429;28;19920;-75
2023/04/24 01:01:11;;;;;;;;;;;21.30;46.80;;;;;;5096725;28;19927;-75
2023/04/24 01:03:37;;;;;;;;;;;21.20;47.20;;;;;;5096265;28;19920;-74
2023/04/24 01:06:03;;;;;;;;;;;21.00;47.40;;;;;;5096295;28;20014;-75
2023/04/24 01:08:28;;;;;;;;;;;21.00;47.70;;;;;;5096518;28;19927;-74
2023/04/24 01:10:54;;;;;;;;;;;20.90;48.50;;;;;;5096267;28;19920;-74
2023/04/24 01:13:21;;;;;;;;;;;20.90;47.80;;;;;;5096173;28;19924;-74
2023/04/24 01:15:46;;;;;;;;;;;20.90;47.80;;;;;;5096149;28;19927;-74
2023/04/24 01:18:12;;;;;;;;;;;20.90;47.60;;;;;;5096282;28;19920;-75
2023/04/24 01:20:39;;;;;;;;;;;21.00;47.60;;;;;;5114504;28;19955;-75
2023/04/24 01:23:05;;;;;;;;;;;21.00;47.50;;;;;;5095798;28;19920;-74
2023/04/24 01:25:31;;;;;;;;;;;21.10;47.40;;;;;;5114252;28;19928;-74
2023/04/24 01:27:57;;;;;;;;;;;21.10;47.30;;;;;;5096030;28;20371;-74
2023/04/24 01:30:22;;;;;;;;;;;21.20;47.10;;;;;;5095760;28;19921;-75
2023/04/24 01:32:48;;;;;;;;;;;21.20;47.00;;;;;;5095733;28;20397;-74
2023/04/24 01:35:14;;;;;;;;;;;21.30;47.00;;;;;;5095860;28;19928;-74
2023/04/24 01:37:39;;;;;;;;;;;21.30;46.90;;;;;;5096005;28;20329;-75
2023/04/24 01:40:06;;;;;;;;;;;21.30;46.80;;;;;;5113974;28;20374;-74
2023/04/24 01:42:32;;;;;;;;;;;21.20;46.70;;;;;;5095838;28;19919;-74
2023/04/24 01:44:57;;;;;;;;;;;21.20;46.70;;;;;;5113800;28;19919;-74
2023/04/24 01:47:23;;;;;;;;;;;21.20;46.70;;;;;;5095681;28;20260;-74
2023/04/24 01:49:49;;;;;;;;;;;21.30;46.70;;;;;;5095591;28;19977;-74
2023/04/24 01:52:16;;;;;;;;;;;21.30;46.60;;;;;;5095065;28;20413;-74
2023/04/24 01:54:41;;;;;;;;;;;21.30;46.60;;;;;;5095385;28;19977;-75
2023/04/24 01:57:07;;;;;;;;;;;21.30;46.50;;;;;;5095501;28;19970;-74
2023/04/24 01:59:33;;;;;;;;;;;21.40;46.50;;;;;;5095261;28;20387;-74
2023/04/24 02:01:58;;;;;;;;;;;21.30;46.40;;;;;;5094663;28;19923;-75
2023/04/24 02:04:24;;;;;;;;;;;21.30;46.30;;;;;;5113376;28;19965;-75
2023/04/24 02:06:49;;;;;;;;;;;21.30;46.30;;;;;;5095009;28;20014;-74
2023/04/24 02:09:15;;;;;;;;;;;21.30;46.30;;;;;;5095367;28;19988;-75
2023/04/24 02:11:40;;;;;;;;;;;21.30;46.40;;;;;;5095220;28;19920;-75
2023/04/24 02:14:06;;;;;;;;;;;21.30;46.30;;;;;;5095266;28;19981;-75
2023/04/24 02:16:32;;;;;;;;;;;21.30;46.30;;;;;;5094923;28;20332;-75
2023/04/24 02:18:58;;;;;;;;;;;21.30;46.30;;;;;;5113268;28;20338;-75
2023/04/24 02:21:23;;;;;;;;;;;21.20;46.30;;;;;;5113088;28;19947;-75
2023/04/24 02:23:49;;;;;;;;;;;21.20;46.30;;;;;;5113124;28;19920;-75
2023/04/24 02:26:15;;;;;;;;;;;21.20;46.30;;;;;;5113017;28;19920;-72
2023/04/24 02:28:40;;;;;;;;;;;21.10;46.30;;;;;;5095182;28;19942;-75
2023/04/24 02:31:06;;;;;;;;;;;21.20;46.30;;;;;;5094748;28;20382;-75
2023/04/24 02:33:35;;;;;;;;;;;21.10;46.30;;;;;;5094830;28;19973;-75
2023/04/24 02:36:01;;;;;;;;;;;21.20;46.30;;;;;;5094914;28;19919;-74
2023/04/24 02:38:26;;;;;;;;;;;21.20;46.20;;;;;;5094737;28;20441;-75
2023/04/24 02:40:52;;;;;;;;;;;21.20;46.20;;;;;;5094712;28;19920;-75
2023/04/24 02:43:17;;;;;;;;;;;21.20;46.20;;;;;;5112932;28;19924;-75
2023/04/24 02:45:43;;;;;;;;;;;21.20;46.20;;;;;;5094618;28;19919;-75
2023/04/24 02:48:08;;;;;;;;;;;21.10;46.10;;;;;;5094871;28;19958;-75
2023/04/24 02:50:34;;;;;;;;;;;21.20;46.10;;;;;;5094493;28;19919;-75
2023/04/24 02:53:00;;;;;;;;;;;21.20;46.10;;;;;;5094389;28;19924;-74
2023/04/24 02:55:25;;;;;;;;;;;21.20;46.00;;;;;;5094579;28;19924;-74
2023/04/24 02:57:51;;;;;;;;;;;21.20;46.00;;;;;;5094753;28;19926;-74
2023/04/24 03:00:16;;;;;;;;;;;21.20;45.90;;;;;;5112720;28;19919;-75
2023/04/24 03:02:42;;;;;;;;;;;21.20;45.90;;;;;;5094492;28;19988;-75
2023/04/24 03:05:07;;;;;;;;;;;21.20;45.80;;;;;;5112723;28;19920;-75
2023/04/24 03:07:33;;;;;;;;;;;21.20;45.80;;;;;;5094544;28;19943;-75
2023/04/24 03:09:59;;;;;;;;;;;21.30;45.70;;;;;;5094759;28;20386;-75
2023/04/24 03:12:25;;;;;;;;;;;21.30;45.60;;;;;;5094186;28;20010;-74
2023/04/24 03:14:50;;;;;;;;;;;21.30;45.50;;;;;;5115182;28;19926;-75
2023/04/24 03:17:16;;;;;;;;;;;21.30;45.50;;;;;;5098754;28;19971;-76
2023/04/24 03:19:41;;;;;;;;;;;21.30;45.50;;;;;;5098390;28;19923;-75
2023/04/24 03:22:08;;;;;;;;;;;21.20;45.40;;;;;;5098887;28;19919;-75
2023/04/24 03:24:34;;;;;;;;;;;21.30;45.40;;;;;;5116409;28;19924;-75
2023/04/24 03:27:00;;;;;;;;;;;21.30;45.40;;;;;;5098307;28;19927;-75
2023/04/24 03:29:25;;;;;;;;;;;21.30;45.40;;;;;;5098496;28;19920;-75
2023/04/24 03:31:51;;;;;;;;;;;21.30;45.40;;;;;;5098178;28;20299;-75
2023/04/24 03:34:16;;;;;;;;;;;21.30;45.40;;;;;;5098367;28;19927;-75
2023/04/24 03:36:42;;;;;;;;;;;21.30;45.40;;;;;;5116391;28;19931;-75
2023/04/24 03:39:07;;;;;;;;;;;21.30;45.40;;;;;;5098018;28;19920;-75
2023/04/24 03:41:33;;;;;;;;;;;21.30;45.30;;;;;;5116461;28;19980;-75
2023/04/24 03:43:58;;;;;;;;;;;21.30;45.30;;;;;;5116356;28;20014;-74
2023/04/24 03:46:24;;;;;;;;;;;21.30;45.20;;;;;;5098263;28;19920;-75
2023/04/24 03:48:50;;;;;;;;;;;21.30;45.20;;;;;;5098238;28;20367;-75
2023/04/24 03:51:15;;;;;;;;;;;21.30;45.20;;;;;;5097835;28;19920;-75
2023/04/24 03:53:41;;;;;;;;;;;21.30;45.10;;;;;;5097407;28;19924;-74
2023/04/24 03:56:06;;;;;;;;;;;21.30;45.10;;;;;;5116049;28;20195;-73
2023/04/24 03:58:31;;;;;;;;;;;21.30;45.10;;;;;;5097911;28;19924;-74
2023/04/24 04:00:58;;;;;;;;;;;21.30;45.10;;;;;;5097596;28;19919;-75
2023/04/24 04:03:23;;;;;;;;;;;21.30;45.00;;;;;;5097912;28;19955;-75
2023/04/24 04:05:49;;;;;;;;;;;21.30;45.10;;;;;;5097452;28;20346;-74
2023/04/24 04:08:14;;;;;;;;;;;21.30;45.00;;;;;;5097878;28;19919;-75
2023/04/24 04:10:40;;;;;;;;;;;21.30;45.00;;;;;;5097260;28;20027;-75
2023/04/24 04:13:06;;;;;;;;;;;21.30;45.00;;;;;;5097471;28;19923;-75
2023/04/24 04:15:31;;;;;;;;;;;21.30;45.00;;;;;;5097281;28;19920;-75
2023/04/24 04:17:57;;;;;;;;;;;21.30;45.00;;;;;;5097313;28;19924;-75
2023/04/24 04:20:22;;;;;;;;;;;21.30;45.00;;;;;;5097462;28;19919;-76
2023/04/24 04:22:48;;;;;;;;;;;21.30;45.00;;;;;;5097493;28;19923;-75
2023/04/24 04:25:13;;;;;;;;;;;21.30;45.00;;;;;;5114794;28;20286;-75
2023/04/24 04:27:41;;;;;;;;;;;21.30;44.90;;;;;;5097149;28;19920;-75
2023/04/24 04:30:08;;;;;;;;;;;21.30;44.90;;;;;;5096921;28;19919;-75
2023/04/24 04:32:34;;;;;;;;;;;21.30;45.00;;;;;;5096959;28;19924;-75
2023/04/24 04:35:02;;;;;;;;;;;21.30;45.00;;;;;;5097272;28;19965;-75
2023/04/24 04:37:30;;;;;;;;;;;21.30;45.00;;;;;;5115255;28;20294;-75
2023/04/24 04:39:55;;;;;;;;;;;21.30;45.00;;;;;;5096862;28;19973;-75
2023/04/24 04:42:21;;;;;;;;;;;21.30;45.00;;;;;;5096810;28;19920;-75
2023/04/24 04:44:46;;;;;;;;;;;21.30;45.00;;;;;;5096829;28;19919;-74
2023/04/24 04:47:12;;;;;;;;;;;21.30;45.00;;;;;;5096921;28;19965;-74
2023/04/24 04:49:38;;;;;;;;;;;21.30;45.00;;;;;;5115055;28;19919;-75
2023/04/24 04:52:04;;;;;;;;;;;21.30;45.00;;;;;;5114464;28;20397;-75
2023/04/24 04:54:29;;;;;;;;;;;21.30;44.90;;;;;;5096805;28;19923;-75
2023/04/24 04:56:55;;;;;;;;;;;21.30;44.90;;;;;;5096494;28;20002;-74
2023/04/24 04:59:20;;;;;;;;;;;21.30;44.90;;;;;;5096526;28;19920;-75
2023/04/24 05:01:46;;;;;;;;;;;21.30;44.90;;;;;;5096396;28;19920;-75
2023/04/24 05:04:11;;;;;;;;;;;21.30;44.90;;;;;;5114662;28;19920;-75
2023/04/24 05:06:37;;;;;;;;;;;21.30;44.80;;;;;;5114639;28;19943;-75
2023/04/24 05:09:03;;;;;;;;;;;21.30;44.80;;;;;;5114584;28;19920;-75
2023/04/24 05:11:29;;;;;;;;;;;21.20;44.80;;;;;;5096084;28;20014;-75
2023/04/24 05:13:55;;;;;;;;;;;21.30;44.80;;;;;;5095371;28;20367;-75
2023/04/24 05:16:20;;;;;;;;;;;21.30;44.80;;;;;;5096373;28;19924;-74
2023/04/24 05:18:46;;;;;;;;;;;21.30;44.90;;;;;;5077439;28;19920;-69
2023/04/24 05:21:11;;;;;;;;;;;21.30;45.00;;;;;;5095423;28;19926;-69
2023/04/24 05:23:37;;;;;;;;;;;21.20;45.00;;;;;;5113335;28;19927;-66
2023/04/24 05:26:02;;;;;;;;;;;21.20;45.20;;;;;;5094581;28;19959;-69
2023/04/24 05:28:28;;;;;;;;;;;21.20;45.40;;;;;;5114205;28;20414;-67
2023/04/24 05:30:55;;;;;;;;;;;21.20;45.40;;;;;;5095511;28;19962;-68
2023/04/24 05:33:20;;;;;;;;;;;21.20;45.50;;;;;;5095481;28;20030;-68
2023/04/24 05:35:46;;;;;;;;;;;21.10;45.60;;;;;;5094734;28;20014;-67
2023/04/24 05:38:12;;;;;;;;;;;21.10;45.80;;;;;;5091985;28;19920;-67
2023/04/24 05:40:38;;;;;;;;;;;21.20;46.00;;;;;;5094402;28;19927;-67
2023/04/24 05:43:03;;;;;;;;;;;21.20;45.80;;;;;;5094665;28;19920;-66
2023/04/24 05:45:29;;;;;;;;;;;21.20;45.80;;;;;;5113554;28;19965;-67
2023/04/24 05:47:54;;;;;;;;;;;21.20;45.90;;;;;;5094596;28;19927;-67
2023/04/24 05:50:20;;;;;;;;;;;21.10;46.10;;;;;;5093447;28;20018;-67
2023/04/24 05:52:46;;;;;;;;;;;21.00;46.40;;;;;;5093642;28;19963;-67
2023/04/24 05:55:11;;;;;;;;;;;20.80;46.70;;;;;;5094399;28;19920;-66
2023/04/24 05:57:37;;;;;;;;;;;20.70;47.00;;;;;;5112892;28;19941;-67
2023/04/24 06:00:04;;;;;;;;;;;20.60;47.40;;;;;;5094618;28;19920;-67
2023/04/24 06:02:32;;;;;;;;;;;20.60;47.60;;;;;;5093405;28;19923;-67
2023/04/24 06:04:58;;;;;;;;;;;20.70;47.60;;;;;;5081974;28;19992;-70
2023/04/24 06:07:25;;;;;;;;;;;20.80;47.60;;;;;;5109523;27;19920;-71
2023/04/24 06:09:51;;;;;;;;;;;20.80;47.50;;;;;;5092004;28;20440;-71
2023/04/24 06:12:16;;;;;;;;;;;20.90;47.50;;;;;;5085758;28;20014;-71
2023/04/24 06:14:42;;;;;;;;;;;21.00;47.40;;;;;;5073250;28;19923;-71
2023/04/24 06:17:07;;;;;;;;;;;21.10;47.20;;;;;;5099644;28;20402;-64
2023/04/24 06:19:33;;;;;;;;;;;21.20;47.10;;;;;;5102727;28;20287;-64
2023/04/24 06:21:58;;;;;;;;;;;21.30;46.80;;;;;;5107315;28;19927;-66
2023/04/24 06:24:27;;;;;;;;;;;21.40;46.70;;;;;;5106987;28;19920;-64
2023/04/24 06:26:52;;;;;;;;;;;21.40;46.80;;;;;;5083086;28;19920;-65
2023/04/24 06:29:18;;;;;;;;;;;21.40;46.90;;;;;;5084039;28;19923;-65
2023/04/24 06:31:43;;;;;;;;;;;21.40;47.00;;;;;;5086854;28;20524;-65
2023/04/24 06:34:09;;;;;;;;;;;21.40;47.20;;;;;;5077602;28;19928;-65
2023/04/24 06:36:35;;;;;;;;;;;21.40;47.30;;;;;;5083636;28;20405;-64
2023/04/24 06:39:01;;;;;;;;;;;21.40;47.50;;;;;;5079952;28;20298;-65
2023/04/24 06:41:26;;;;;;;;;;;21.30;47.80;;;;;;5074815;28;19926;-65
2023/04/24 06:43:52;;;;;;;;;;;21.20;48.00;;;;;;5071839;28;20410;-67
2023/04/24 06:46:17;;;;;;;;;;;21.10;48.40;;;;;;5074349;28;20414;-69
2023/04/24 06:48:43;;;;;;;;;;;21.10;48.60;;;;;;5106011;27;20029;-69
2023/04/24 06:51:09;;;;;;;;;;;21.10;48.80;;;;;;5077320;28;20057;-69
2023/04/24 06:53:34;;;;;;;;;;;21.00;48.90;;;;;;5106169;27;20290;-66
2023/04/24 06:56:00;;;;;;;;;;;21.00;49.20;;;;;;5072884;28;20457;-69
2023/04/24 06:58:25;;;;;;;;;;;21.00;49.30;;;;;;5075188;28;20006;-71
2023/04/24 07:00:51;;;;;;;;;;;20.90;49.30;;;;;;5104324;28;19931;-71
2023/04/24 07:03:19;;;;;;;;;;;21.00;49.30;;;;;;5075123;28;19920;-72
2023/04/24 07:05:46;;;;;;;;;;;21.00;49.20;;;;;;5073563;28;19930;-69
2023/04/24 07:08:11;;;;;;;;;;;21.00;49.20;;;;;;5076724;28;19957;-69
2023/04/24 07:10:37;;;;;;;;;;;21.10;49.20;;;;;;5089212;28;19923;-67
2023/04/24 07:13:02;;;;;;;;;;;21.10;49.30;;;;;;5072067;28;20011;-76
2023/04/24 07:15:28;;;;;;;;;;;21.10;49.30;;;;;;5068164;28;19996;-67
2023/04/24 07:17:53;;;;;;;;;;;21.20;49.30;;;;;;5078758;28;19992;-71
2023/04/24 07:20:19;;;;;;;;;;;21.20;49.30;;;;;;5069955;28;20022;-70
2023/04/24 07:22:44;;;;;;;;;;;21.20;49.30;;;;;;5088799;28;19928;-69
2023/04/24 07:25:10;;;;;;;;;;;21.20;49.30;;;;;;5069432;28;19924;-74
2023/04/24 07:27:36;;;;;;;;;;;21.20;49.30;;;;;;5106545;28;19978;-68
2023/04/24 07:30:02;;;;;;;;;;;21.30;49.40;;;;;;5090500;28;19928;-70
2023/04/24 07:32:27;;;;;;;;;;;21.20;49.40;;;;;;5075913;28;20393;-67
2023/04/24 07:34:53;;;;;;;;;;;21.20;49.50;;;;;;5083936;28;20340;-67
2023/04/24 07:37:18;;;;;;;;;;;21.20;49.50;;;;;;5075259;28;19931;-67
2023/04/24 07:39:44;;;;;;;;;;;21.20;49.70;;;;;;5077506;28;19927;-67
2023/04/24 07:42:09;;;;;;;;;;;21.20;49.70;;;;;;5072134;28;19959;-66
2023/04/24 07:44:35;;;;;;;;;;;21.20;49.70;;;;;;5102987;27;20405;-68
2023/04/24 07:47:01;;;;;;;;;;;21.20;49.70;;;;;;5093767;28;20579;-72
2023/04/24 07:49:27;;;;;;;;;;;21.20;49.90;;;;;;5078065;28;19930;-71
2023/04/24 07:51:53;;;;;;;;;;;21.20;50.00;;;;;;5068913;28;19929;-69
2023/04/24 07:54:18;;;;;;;;;;;21.20;50.10;;;;;;5071121;28;19935;-66
2023/04/24 07:56:44;;;;;;;;;;;21.10;50.20;;;;;;5069041;28;20074;-65
2023/04/24 07:59:10;;;;;;;;;;;21.20;50.30;;;;;;5075508;28;20367;-63
2023/04/24 08:01:35;;;;;;;;;;;21.20;50.20;;;;;;5075313;28;20371;-63
2023/04/24 08:04:01;;;;;;;;;;;21.20;50.30;;;;;;5072644;28;19928;-62
2023/04/24 08:06:30;;;;;;;;;;;21.10;50.50;;;;;;5074217;28;19924;-64
2023/04/24 08:08:56;;;;;;;;;;;21.10;50.60;;;;;;5071297;28;19931;-63
2023/04/24 08:11:21;;;;;;;;;;;21.10;50.60;;;;;;5069788;28;19927;-71
2023/04/24 08:13:46;;;;;;;;;;;21.10;50.60;;;;;;5068022;28;19924;-71
2023/04/24 08:16:12;;;;;;;;;;;21.10;50.70;;;;;;5061626;28;19924;-70
2023/04/24 08:18:37;;;;;;;;;;;21.10;50.70;;;;;;5059503;28;19924;-69
2023/04/24 08:21:03;;;;;;;;;;;21.10;50.60;;;;;;5067124;28;19931;-76
2023/04/24 08:23:29;;;;;;;;;;;21.10;50.60;;;;;;5063611;28;20264;-69
2023/04/24 08:25:55;;;;;;;;;;;21.10;50.50;;;;;;5063312;28;19935;-70
2023/04/24 08:28:20;;;;;;;;;;;21.00;50.40;;;;;;5058031;28;20322;-70
2023/04/24 08:30:47;;;;;;;;;;;21.10;50.40;;;;;;5069406;28;22509;-62
2023/04/24 08:33:12;;;;;;;;;;;21.00;50.40;;;;;;5071134;28;19928;-61
2023/04/24 08:35:38;;;;;;;;;;;21.00;50.60;;;;;;5064331;28;19924;-64
2023/04/24 08:38:04;;;;;;;;;;;21.00;51.00;;;;;;5062484;28;19960;-65
2023/04/24 08:40:33;;;;;;;;;;;21.10;51.50;;;;;;5069080;28;20339;-64
2023/04/24 08:42:59;;;;;;;;;;;21.20;51.00;;;;;;5072081;28;20328;-64
2023/04/24 08:45:25;;;;;;;;;;;21.20;50.90;;;;;;5067028;28;19920;-64
2023/04/24 08:47:53;;;;;;;;;;;21.20;50.70;;;;;;5068194;28;19924;-64
2023/04/24 08:50:18;;;;;;;;;;;21.20;50.60;;;;;;5069027;28;19935;-65
2023/04/24 08:52:44;;;;;;;;;;;21.20;50.50;;;;;;5078513;28;19931;-71
2023/04/24 08:55:10;;;;;;;;;;;21.20;50.30;;;;;;5076804;28;19930;-67
2023/04/24 08:57:35;;;;;;;;;;;21.20;50.20;;;;;;5076468;28;19924;-69
2023/04/24 09:00:02;;;;;;;;;;;21.30;50.10;;;;;;5073326;28;19924;-68
2023/04/24 09:02:27;;;;;;;;;;;21.30;50.10;;;;;;5076319;28;19931;-68
2023/04/24 09:04:53;;;;;;;;;;;21.40;50.10;;;;;;5105640;27;19924;-69
2023/04/24 09:07:19;;;;;;;;;;;21.40;49.90;;;;;;5086785;28;19932;-70
2023/04/24 09:09:45;;;;;;;;;;;21.40;49.80;;;;;;5076969;28;20011;-73
2023/04/24 09:12:11;;;;;;;;;;;21.40;49.80;;;;;;5074163;28;20422;-71
2023/04/24 09:14:39;;;;;;;;;;;21.40;49.80;;;;;;5072127;28;19924;-68
2023/04/24 09:17:06;;;;;;;;;;;21.40;49.80;;;;;;5075762;28;20371;-72
2023/04/24 09:19:31;;;;;;;;;;;21.40;49.80;;;;;;5071291;28;20286;-73
2023/04/24 09:21:57;;;;;;;;;;;21.40;49.70;;;;;;5071702;28;19951;-72
2023/04/24 09:24:22;;;;;;;;;;;21.40;49.70;;;;;;5105156;27;19969;-72
2023/04/24 09:26:58;;;;;;;;;;;21.40;49.70;;;;;;5090664;28;19974;-68
2023/04/24 09:29:24;;;;;;;;;;;21.40;49.70;;;;;;5073662;28;20468;-70
2023/04/24 09:31:50;;;;;;;;;;;21.30;49.60;;;;;;5074078;28;20015;-71
2023/04/24 09:34:20;;;;;;;;;;;21.30;49.60;;;;;;5070651;28;20402;-70
2023/04/24 09:36:46;;;;;;;;;;;21.30;49.50;;;;;;5072677;28;19931;-71
2023/04/24 09:39:12;;;;;;;;;;;21.30;49.70;;;;;;5072636;28;19970;-67
2023/04/24 09:41:53;;;;;;;;;;;21.20;49.80;;;;;;5075375;28;19932;-69
2023/04/24 09:44:20;;;;;;;;;;;21.20;50.00;;;;;;5075795;28;19928;-66
2023/04/24 09:46:50;;;;;;;;;;;21.20;49.90;;;;;;5072239;28;20193;-75
2023/04/24 09:49:17;;;;;;;;;;;21.20;49.90;;;;;;5103450;27;19926;-71
2023/04/24 09:51:42;;;;;;;;;;;21.20;50.00;;;;;;5092723;28;20395;-72
2023/04/24 09:54:17;;;;;;;;;;;21.20;50.00;;;;;;5076655;28;19939;-71
2023/04/24 09:56:44;;;;;;;;;;;21.20;50.20;;;;;;5076955;28;20272;-67
2023/04/24 09:59:10;;;;;;;;;;;21.20;50.40;;;;;;5085253;28;20319;-66
2023/04/24 10:01:36;;;;;;;;;;;21.20;50.50;;;;;;5087391;28;19924;-64
2023/04/24 10:04:01;;;;;;;;;;;21.20;50.60;;;;;;5077903;28;20188;-64
2023/04/24 10:06:33;;;;;;;;;;;21.20;50.80;;;;;;5090413;28;19957;-66
2023/04/24 10:08:59;;;;;;;;;;;21.20;50.90;;;;;;5089631;28;20341;-68
2023/04/24 10:11:26;;;;;;;;;;;21.20;51.00;;;;;;5092599;28;19934;-66
2023/04/24 10:13:52;;;;;;;;;;;21.20;51.20;;;;;;5105828;27;19927;-67
2023/04/24 10:16:18;;;;;;;;;;;21.10;51.50;;;;;;5075181;28;19946;-66
2023/04/24 10:18:44;;;;;;;;;;;21.00;51.70;;;;;;5070006;28;19919;-66
2023/04/24 10:21:10;;;;;;;;;;;21.00;52.00;;;;;;5086288;28;19949;-67
2023/04/24 10:23:35;;;;;;;;;;;21.00;52.30;;;;;;5087096;28;19967;-66
2023/04/24 10:26:01;;;;;;;;;;;20.90;52.30;;;;;;5070799;28;20219;-67
2023/04/24 10:28:27;;;;;;;;;;;20.90;52.30;;;;;;5083447;28;19949;-68
2023/04/24 10:30:54;;;;;;;;;;;20.80;52.30;;;;;;5085676;28;20374;-68
2023/04/24 10:33:21;;;;;;;;;;;20.80;52.20;;;;;;5089647;28;19924;-68
2023/04/24 10:35:48;;;;;;;;;;;20.70;51.90;;;;;;5076198;28;19955;-69
2023/04/24 10:38:16;;;;;;;;;;;20.70;51.70;;;;;;5102157;27;19924;-67
2023/04/24 10:40:42;;;;;;;;;;;20.70;51.60;;;;;;5102560;27;19924;-67
2023/04/24 10:43:10;;;;;;;;;;;20.70;51.40;;;;;;5106997;27;20434;-67
2023/04/24 10:45:36;;;;;;;;;;;20.70;51.10;;;;;;5106923;27;19931;-65
2023/04/24 10:48:02;;;;;;;;;;;20.70;51.60;;;;;;5077558;28;19923;-69
2023/04/24 10:50:30;;;;;;;;;;;20.60;52.30;;;;;;5095127;28;19928;-67
2023/04/24 10:53:15;;;;;;;;;;;20.70;53.20;;;;;;5075830;28;20009;-67
2023/04/24 10:58:22;;;;;;;;;;;21.10;54.30;;;;;;5090651;27;20736;-67
2023/04/24 11:00:56;;;;;;;;;;;21.40;54.00;;;;;;5118859;27;19928;-70
2023/04/24 11:03:24;;;;;;;;;;;21.50;54.00;;;;;;5089235;28;19923;-71
2023/04/24 11:08:42;;;;;;;;;;;21.70;53.60;;;;;;5084445;27;19920;-71
2023/04/24 11:11:09;;;;;;;;;;;22.00;53.00;;;;;;5071248;28;19925;-69
2023/04/24 11:13:55;;;;;;;;;;;22.20;51.70;;;;;;5103473;28;20402;-68
2023/04/24 11:16:21;;;;;;;;;;;22.30;51.00;;;;;;5069469;28;20732;-69
2023/04/24 11:18:52;;;;;;;;;;;22.50;50.60;;;;;;5064452;28;19963;-72
2023/04/24 11:21:18;;;;;;;;;;;22.40;50.30;;;;;;5103236;28;20024;-73
2023/04/24 11:23:44;;;;;;;;;;;22.40;50.20;;;;;;5071515;28;19924;-70
2023/04/24 11:26:11;;;;;;;;;;;22.40;50.30;;;;;;5077063;28;19929;-72
2023/04/24 11:28:37;;;;;;;;;;;22.40;50.30;;;;;;5081827;28;19974;-69
2023/04/24 11:31:22;;;;;;;;;;;22.60;50.20;;;;;;5070881;28;20489;-68
2023/04/24 11:33:48;;;;;;;;;;;22.80;49.80;;;;;;5086615;28;19924;-78
2023/04/24 11:36:13;;;;;;;;;;;23.20;49.30;;;;;;5071625;28;19939;-67
2023/04/24 11:38:39;;;;;;;;;;;23.40;48.80;;;;;;5103929;28;19963;-69
2023/04/24 11:41:06;;;;;;;;;;;23.70;48.40;;;;;;5074385;28;20047;-69
2023/04/24 11:43:32;;;;;;;;;;;23.90;48.10;;;;;;5062697;28;20014;-67
2023/04/24 11:46:00;;;;;;;;;;;24.30;46.80;;;;;;5065948;28;19924;-69
2023/04/24 11:48:25;;;;;;;;;;;24.30;46.10;;;;;;5067559;28;19962;-68
2023/04/24 11:50:51;;;;;;;;;;;24.30;46.40;;;;;;5065577;28;20023;-69
2023/04/24 11:53:18;;;;;;;;;;;24.30;46.00;;;;;;5062758;28;19936;-74
2023/04/24 11:55:44;;;;;;;;;;;24.30;46.00;;;;;;5066525;28;20511;-68
2023/04/24 11:58:09;;;;;;;;;;;24.50;45.90;;;;;;5070328;28;20042;-67
2023/04/24 12:00:35;;;;;;;;;;;24.60;45.40;;;;;;5071842;28;19952;-67
2023/04/24 12:03:08;;;;;;;;;;;24.70;44.40;;;;;;5069934;28;20402;-67
2023/04/24 12:05:34;;;;;;;;;;;24.60;43.90;;;;;;5103484;28;19931;-66
2023/04/24 12:08:00;;;;;;;;;;;24.60;43.70;;;;;;5069572;28;20310;-67
2023/04/24 12:10:27;;;;;;;;;;;24.50;43.70;;;;;;5067320;28;20344;-68
2023/04/24 12:12:54;;;;;;;;;;;24.50;43.70;;;;;;5060202;28;19979;-68
2023/04/24 12:15:20;;;;;;;;;;;24.50;43.70;;;;;;5066571;28;19928;-66
2023/04/24 12:17:46;;;;;;;;;;;24.50;43.40;;;;;;5066142;28;19978;-67
2023/04/24 12:20:12;;;;;;;;;;;24.50;43.70;;;;;;5054271;28;20422;-67
2023/04/24 12:25:29;;;;;;;;;;;24.50;43.70;;;;;;5075182;27;19967;-67
2023/04/24 12:30:35;;;;;;;;;;;24.60;43.70;;;;;;5054080;28;19920;-67
2023/04/24 12:33:01;;;;;;;;;;;24.60;43.50;;;;;;5029725;28;19980;-66
2023/04/24 12:35:28;;;;;;;;;;;24.60;43.10;;;;;;5040723;28;20008;-67
2023/04/24 12:37:54;;;;;;;;;;;24.60;43.10;;;;;;5034424;28;19925;-67
2023/04/24 12:40:20;;;;;;;;;;;24.50;43.30;;;;;;5035043;28;19929;-67
2023/04/24 12:42:47;;;;;;;;;;;24.60;43.30;;;;;;5030370;28;19929;-67
2023/04/24 12:45:13;;;;;;;;;;;24.60;43.50;;;;;;5034316;28;19921;-67
2023/04/24 12:47:39;;;;;;;;;;;24.60;43.50;;;;;;5037845;28;19922;-67
2023/04/24 12:50:05;;;;;;;;;;;24.60;43.50;;;;;;5033282;28;20009;-68
2023/04/24 12:52:31;;;;;;;;;;;24.70;43.30;;;;;;5030678;28;19925;-66
2023/04/24 12:54:58;;;;;;;;;;;24.80;43.00;;;;;;5045784;28;20085;-70
2023/04/24 12:57:24;;;;;;;;;;;24.90;42.90;;;;;;5027928;28;20497;-66
2023/04/24 12:59:50;;;;;;;;;;;25.00;42.50;;;;;;5031770;28;19921;-64
2023/04/24 13:02:17;;;;;;;;;;;25.00;42.20;;;;;;5050973;28;19925;-65
2023/04/24 13:04:46;;;;;;;;;;;24.90;41.90;;;;;;5037871;28;19925;-65
2023/04/24 13:07:13;;;;;;;;;;;24.90;41.70;;;;;;5028534;28;20314;-65
2023/04/24 13:09:38;;;;;;;;;;;25.00;40.20;;;;;;5035246;28;19998;-63
2023/04/24 13:12:05;;;;;;;;;;;25.10;39.10;;;;;;5049302;28;20416;-65
2023/04/24 13:14:31;;;;;;;;;;;25.00;38.70;;;;;;5040285;28;19982;-65
2023/04/24 13:16:56;;;;;;;;;;;24.90;39.00;;;;;;5038519;28;19929;-63
2023/04/24 13:19:24;;;;;;;;;;;25.00;39.00;;;;;;5051271;28;19925;-65
2023/04/24 13:21:50;;;;;;;;;;;25.00;38.90;;;;;;5038847;28;20270;-65
2023/04/24 13:24:15;;;;;;;;;;;25.10;38.50;;;;;;5039067;28;19928;-65
2023/04/24 13:26:41;;;;;;;;;;;25.20;38.60;;;;;;5037659;28;19936;-65
2023/04/24 13:29:06;;;;;;;;;;;25.20;38.30;;;;;;5039647;28;19925;-65
2023/04/24 13:31:32;;;;;;;;;;;25.30;38.30;;;;;;5038224;28;19928;-65
2023/04/24 13:33:57;;;;;;;;;;;25.30;38.00;;;;;;5041213;28;20011;-65
2023/04/24 13:36:23;;;;;;;;;;;25.20;38.00;;;;;;5040347;28;20494;-64
2023/04/24 13:38:49;;;;;;;;;;;25.20;38.20;;;;;;5045425;28;20054;-65
2023/04/24 13:41:14;;;;;;;;;;;25.20;38.50;;;;;;5030367;28;19925;-65
2023/04/24 13:43:42;;;;;;;;;;;25.20;38.10;;;;;;5028355;28;19925;-66
2023/04/24 13:46:07;;;;;;;;;;;25.30;38.10;;;;;;5029006;28;19986;-65
2023/04/24 13:48:33;;;;;;;;;;;25.20;38.00;;;;;;5025829;28;19975;-67
2023/04/24 13:50:58;;;;;;;;;;;25.30;38.20;;;;;;5023563;28;20260;-66
2023/04/24 13:53:24;;;;;;;;;;;25.40;37.80;;;;;;5020361;28;19921;-66
2023/04/24 13:55:49;;;;;;;;;;;25.40;37.50;;;;;;5025582;28;19951;-66
2023/04/24 13:58:15;;;;;;;;;;;25.40;37.50;;;;;;5035001;28;20446;-65
2023/04/24 14:00:40;;;;;;;;;;;25.40;37.10;;;;;;5023051;28;19966;-66
2023/04/24 14:03:06;;;;;;;;;;;25.40;37.00;;;;;;5024585;28;19929;-64
2023/04/24 14:05:31;;;;;;;;;;;25.40;37.00;;;;;;5020219;28;19929;-66
2023/04/24 14:07:57;;;;;;;;;;;25.30;37.30;;;;;;5018896;28;19932;-64
2023/04/24 14:10:22;;;;;;;;;;;25.20;37.50;;;;;;5024185;28;20179;-64
2023/04/24 14:12:48;;;;;;;;;;;25.00;37.40;;;;;;5020728;28;19929;-66
2023/04/24 14:15:13;;;;;;;;;;;24.80;37.50;;;;;;5026018;28;20016;-66
2023/04/24 14:17:39;;;;;;;;;;;24.70;37.90;;;;;;5029449;28;19925;-66
2023/04/24 14:20:05;;;;;;;;;;;24.60;38.40;;;;;;5024624;28;19976;-68